sensor_id;sensor_type;location;lat;lon;timestamp;pressure;altitude;pressure_sealevel;temperature;humidity
32251;BME280;41295;48.518;9.206;2023-03-23T00:01:10;96678.81;;;14.07;50.11
32251;BME280;41295;48.518;9.206;2023-03-23T00:03:13;96673.09;;;14.01;50.18
32251;BME280;41295;48.518;9.206;2023-03-23T00:05:16;96666.34;;;13.97;50.38
32251;BME280;41295;48.518;9.206;2023-03-23T00:07:18;96666.63;;;14.06;50.40
32251;BME280;41295;48.518;9.206;2023-03-23T00:09:28;96672.06;;;14.18;50.05
32251;BME280;41295;48.518;9.206;2023-03-23T00:11:34;96672.53;;;14.10;50.11
32251;BME280;41295;48.518;9.206;2023-03-23T00:13:39;96674.88;;;14.00;50.46
32251;BME280;41295;48.518;9.206;2023-03-23T00:15:40;96670.00;;;13.94;50.41
32251;BME280;41295;48.518;9.206;2023-03-23T00:17:42;96664.94;;;14.05;49.80
32251;BME280;41295;48.518;9.206;2023-03-23T00:19:44;96662.63;;;14.01;50.11
32251;BME280;41295;48.518;9.206;2023-03-23T00:21:53;96658.09;;;14.03;51.09
32251;BME280;41295;48.518;9.206;2023-03-23T00:23:54;96654.09;;;13.97;52.21
32251;BME280;41295;48.518;9.206;2023-03-23T00:25:56;96644.09;;;13.89;52.68
32251;BME280;41295;48.518;9.206;2023-03-23T00:27:57;96650.44;;;13.85;53.25
32251;BME280;41295;48.518;9.206;2023-03-23T00:30:00;96650.72;;;13.80;53.13
32251;BME280;41295;48.518;9.206;2023-03-23T00:32:02;96655.22;;;13.78;52.89
32251;BME280;41295;48.518;9.206;2023-03-23T00:34:04;96643.16;;;13.76;53.06
32251;BME280;41295;48.518;9.206;2023-03-23T00:36:07;96638.75;;;13.76;52.93
32251;BME280;41295;48.518;9.206;2023-03-23T00:38:11;96638.66;;;13.78;53.08
32251;BME280;41295;48.518;9.206;2023-03-23T00:40:12;96636.97;;;13.77;53.23
32251;BME280;41295;48.518;9.206;2023-03-23T00:42:14;96636.03;;;13.78;53.05
32251;BME280;41295;48.518;9.206;2023-03-23T00:44:17;96630.88;;;13.76;53.05
32251;BME280;41295;48.518;9.206;2023-03-23T00:46:19;96627.34;;;13.77;53.21
32251;BME280;41295;48.518;9.206;2023-03-23T00:48:22;96623.03;;;13.76;53.50
32251;BME280;41295;48.518;9.206;2023-03-23T00:50:24;96621.72;;;13.83;54.01
32251;BME280;41295;48.518;9.206;2023-03-23T00:52:26;96618.53;;;13.78;54.36
32251;BME280;41295;48.518;9.206;2023-03-23T00:54:29;96624.81;;;13.76;54.77
32251;BME280;41295;48.518;9.206;2023-03-23T00:56:31;96617.97;;;13.73;54.70
32251;BME280;41295;48.518;9.206;2023-03-23T00:58:33;96619.00;;;13.70;55.00
32251;BME280;41295;48.518;9.206;2023-03-23T01:00:34;96613.94;;;13.67;55.03
32251;BME280;41295;48.518;9.206;2023-03-23T01:02:36;96606.75;;;13.71;54.89
32251;BME280;41295;48.518;9.206;2023-03-23T01:04:40;96613.84;;;13.69;54.73
32251;BME280;41295;48.518;9.206;2023-03-23T01:06:48;96616.75;;;13.79;54.81
32251;BME280;41295;48.518;9.206;2023-03-23T01:08:50;96614.41;;;13.74;55.03
32251;BME280;41295;48.518;9.206;2023-03-23T01:11:02;96601.97;;;13.78;54.29
32251;BME280;41295;48.518;9.206;2023-03-23T01:13:04;96606.53;;;13.74;54.48
32251;BME280;41295;48.518;9.206;2023-03-23T01:15:06;96601.41;;;13.73;54.86
32251;BME280;41295;48.518;9.206;2023-03-23T01:17:08;96596.16;;;13.73;55.08
32251;BME280;41295;48.518;9.206;2023-03-23T01:19:10;96604.13;;;13.71;55.57
32251;BME280;41295;48.518;9.206;2023-03-23T01:21:14;96594.41;;;13.73;55.09
32251;BME280;41295;48.518;9.206;2023-03-23T01:23:16;96598.88;;;13.71;54.61
32251;BME280;41295;48.518;9.206;2023-03-23T01:25:17;96597.22;;;13.70;54.18
32251;BME280;41295;48.518;9.206;2023-03-23T01:27:20;96596.16;;;13.73;53.77
32251;BME280;41295;48.518;9.206;2023-03-23T01:29:21;96597.88;;;13.74;53.79
32251;BME280;41295;48.518;9.206;2023-03-23T01:31:24;96594.28;;;13.89;51.79
32251;BME280;41295;48.518;9.206;2023-03-23T01:33:26;96591.22;;;13.82;51.13
32251;BME280;41295;48.518;9.206;2023-03-23T01:35:27;96587.66;;;13.83;50.90
32251;BME280;41295;48.518;9.206;2023-03-23T01:37:29;96591.66;;;13.89;51.22
32251;BME280;41295;48.518;9.206;2023-03-23T01:39:31;96583.81;;;13.89;51.95
32251;BME280;41295;48.518;9.206;2023-03-23T01:41:33;96590.47;;;13.95;53.11
32251;BME280;41295;48.518;9.206;2023-03-23T01:43:55;96585.66;;;14.02;51.77
32251;BME280;41295;48.518;9.206;2023-03-23T01:45:59;96590.59;;;14.06;51.20
32251;BME280;41295;48.518;9.206;2023-03-23T01:48:02;96592.78;;;14.00;51.20
32251;BME280;41295;48.518;9.206;2023-03-23T01:50:05;96588.38;;;14.00;50.51
32251;BME280;41295;48.518;9.206;2023-03-23T01:52:13;96581.75;;;13.94;50.89
32251;BME280;41295;48.518;9.206;2023-03-23T01:54:18;96583.06;;;13.87;51.63
32251;BME280;41295;48.518;9.206;2023-03-23T01:56:24;96577.91;;;13.86;52.61
32251;BME280;41295;48.518;9.206;2023-03-23T01:58:32;96568.66;;;13.80;52.42
32251;BME280;41295;48.518;9.206;2023-03-23T02:00:36;96566.22;;;13.77;52.84
32251;BME280;41295;48.518;9.206;2023-03-23T02:02:44;96563.91;;;13.72;52.79
32251;BME280;41295;48.518;9.206;2023-03-23T02:04:47;96561.19;;;13.74;52.61
32251;BME280;41295;48.518;9.206;2023-03-23T02:06:49;96554.53;;;13.68;52.68
32251;BME280;41295;48.518;9.206;2023-03-23T02:08:51;96555.09;;;13.73;52.64
32251;BME280;41295;48.518;9.206;2023-03-23T02:10:53;96555.66;;;13.78;52.60
32251;BME280;41295;48.518;9.206;2023-03-23T02:12:55;96548.00;;;13.75;53.07
32251;BME280;41295;48.518;9.206;2023-03-23T02:14:56;96552.56;;;13.71;52.98
32251;BME280;41295;48.518;9.206;2023-03-23T02:17:02;96557.38;;;13.65;53.02
32251;BME280;41295;48.518;9.206;2023-03-23T02:19:25;96547.59;;;13.67;52.77
32251;BME280;41295;48.518;9.206;2023-03-23T02:24:35;96548.94;;;13.59;52.85
32251;BME280;41295;48.518;9.206;2023-03-23T02:26:50;96550.31;;;13.65;52.54
32251;BME280;41295;48.518;9.206;2023-03-23T02:29:08;96549.59;;;13.63;52.37
32251;BME280;41295;48.518;9.206;2023-03-23T02:31:32;96547.91;;;13.62;52.38
32251;BME280;41295;48.518;9.206;2023-03-23T02:33:47;96545.94;;;13.66;52.34
32251;BME280;41295;48.518;9.206;2023-03-23T02:35:54;96537.88;;;13.69;51.83
32251;BME280;41295;48.518;9.206;2023-03-23T02:38:01;96542.56;;;13.78;51.21
32251;BME280;41295;48.518;9.206;2023-03-23T02:40:07;96543.41;;;14.06;49.24
32251;BME280;41295;48.518;9.206;2023-03-23T02:42:13;96539.13;;;14.05;49.71
32251;BME280;41295;48.518;9.206;2023-03-23T02:44:17;96530.75;;;14.13;49.66
32251;BME280;41295;48.518;9.206;2023-03-23T02:46:20;96526.78;;;14.07;49.71
32251;BME280;41295;48.518;9.206;2023-03-23T02:48:28;96527.72;;;14.34;48.88
32251;BME280;41295;48.518;9.206;2023-03-23T02:50:32;96528.34;;;14.38;48.64
32251;BME280;41295;48.518;9.206;2023-03-23T02:52:36;96520.59;;;14.36;48.65
32251;BME280;41295;48.518;9.206;2023-03-23T02:54:41;96511.19;;;14.47;48.58
32251;BME280;41295;48.518;9.206;2023-03-23T02:56:44;96502.25;;;14.49;48.38
32251;BME280;41295;48.518;9.206;2023-03-23T02:58:46;96507.13;;;14.69;48.00
32251;BME280;41295;48.518;9.206;2023-03-23T03:00:48;96508.47;;;14.61;48.26
32251;BME280;41295;48.518;9.206;2023-03-23T03:02:52;96512.28;;;14.70;48.10
32251;BME280;41295;48.518;9.206;2023-03-23T03:05:00;96502.94;;;14.79;47.76
32251;BME280;41295;48.518;9.206;2023-03-23T03:07:24;96500.66;;;14.87;47.41
32251;BME280;41295;48.518;9.206;2023-03-23T03:09:36;96495.25;;;14.76;48.05
32251;BME280;41295;48.518;9.206;2023-03-23T03:11:42;96499.47;;;14.78;47.81
32251;BME280;41295;48.518;9.206;2023-03-23T03:13:50;96498.03;;;14.87;47.70
32251;BME280;41295;48.518;9.206;2023-03-23T03:15:57;96504.13;;;14.88;47.50
32251;BME280;41295;48.518;9.206;2023-03-23T03:18:07;96509.28;;;14.89;47.63
32251;BME280;41295;48.518;9.206;2023-03-23T03:20:12;96507.78;;;14.85;47.82
32251;BME280;41295;48.518;9.206;2023-03-23T03:22:14;96500.88;;;14.84;47.88
32251;BME280;41295;48.518;9.206;2023-03-23T03:24:20;96495.88;;;14.79;47.96
32251;BME280;41295;48.518;9.206;2023-03-23T03:26:22;96494.06;;;14.95;47.50
32251;BME280;41295;48.518;9.206;2023-03-23T03:28:26;96480.72;;;14.98;47.46
32251;BME280;41295;48.518;9.206;2023-03-23T03:30:30;96478.31;;;14.95;47.49
32251;BME280;41295;48.518;9.206;2023-03-23T03:32:40;96470.94;;;14.87;47.88
32251;BME280;41295;48.518;9.206;2023-03-23T03:34:42;96473.91;;;14.82;48.19
32251;BME280;41295;48.518;9.206;2023-03-23T03:36:44;96475.56;;;14.83;48.01
32251;BME280;41295;48.518;9.206;2023-03-23T03:38:49;96473.69;;;14.85;47.91
32251;BME280;41295;48.518;9.206;2023-03-23T03:40:53;96470.50;;;14.80;48.24
32251;BME280;41295;48.518;9.206;2023-03-23T03:42:55;96477.72;;;14.76;48.57
32251;BME280;41295;48.518;9.206;2023-03-23T03:44:56;96475.53;;;14.70;48.87
32251;BME280;41295;48.518;9.206;2023-03-23T03:46:58;96478.88;;;14.72;48.76
32251;BME280;41295;48.518;9.206;2023-03-23T03:49:01;96477.00;;;14.74;48.49
32251;BME280;41295;48.518;9.206;2023-03-23T03:51:04;96475.84;;;14.78;48.15
32251;BME280;41295;48.518;9.206;2023-03-23T03:53:06;96480.41;;;14.89;46.95
32251;BME280;41295;48.518;9.206;2023-03-23T03:55:09;96477.06;;;15.00;46.47
32251;BME280;41295;48.518;9.206;2023-03-23T03:57:12;96472.09;;;14.96;46.63
32251;BME280;41295;48.518;9.206;2023-03-23T03:59:14;96471.38;;;15.07;46.16
32251;BME280;41295;48.518;9.206;2023-03-23T04:01:16;96473.06;;;15.08;46.29
32251;BME280;41295;48.518;9.206;2023-03-23T04:03:18;96483.03;;;15.15;45.45
32251;BME280;41295;48.518;9.206;2023-03-23T04:05:20;96477.03;;;15.13;45.61
32251;BME280;41295;48.518;9.206;2023-03-23T04:07:22;96475.88;;;15.05;46.07
32251;BME280;41295;48.518;9.206;2023-03-23T04:09:26;96470.97;;;15.00;46.27
32251;BME280;41295;48.518;9.206;2023-03-23T04:11:28;96473.91;;;14.95;46.60
32251;BME280;41295;48.518;9.206;2023-03-23T04:13:31;96473.47;;;15.01;46.65
32251;BME280;41295;48.518;9.206;2023-03-23T04:15:33;96479.88;;;14.97;47.03
32251;BME280;41295;48.518;9.206;2023-03-23T04:17:34;96475.78;;;14.93;47.25
32251;BME280;41295;48.518;9.206;2023-03-23T04:19:37;96474.72;;;14.96;46.94
32251;BME280;41295;48.518;9.206;2023-03-23T04:21:39;96477.91;;;14.88;47.11
32251;BME280;41295;48.518;9.206;2023-03-23T04:23:40;96469.06;;;14.89;46.91
32251;BME280;41295;48.518;9.206;2023-03-23T04:25:42;96467.41;;;14.88;46.74
32251;BME280;41295;48.518;9.206;2023-03-23T04:27:44;96463.91;;;14.87;46.85
32251;BME280;41295;48.518;9.206;2023-03-23T04:29:47;96463.91;;;14.87;46.67
32251;BME280;41295;48.518;9.206;2023-03-23T04:31:49;96462.78;;;14.91;46.81
32251;BME280;41295;48.518;9.206;2023-03-23T04:33:52;96464.63;;;14.76;47.33
32251;BME280;41295;48.518;9.206;2023-03-23T04:35:56;96460.34;;;14.88;46.76
32251;BME280;41295;48.518;9.206;2023-03-23T04:38:01;96460.78;;;14.82;46.67
32251;BME280;41295;48.518;9.206;2023-03-23T04:40:03;96464.50;;;14.78;47.00
32251;BME280;41295;48.518;9.206;2023-03-23T04:42:10;96467.56;;;14.85;46.80
32251;BME280;41295;48.518;9.206;2023-03-23T04:44:14;96467.34;;;14.75;46.95
32251;BME280;41295;48.518;9.206;2023-03-23T04:46:19;96479.09;;;14.69;47.20
32251;BME280;41295;48.518;9.206;2023-03-23T04:48:21;96473.84;;;14.69;47.20
32251;BME280;41295;48.518;9.206;2023-03-23T04:50:25;96475.72;;;14.67;47.36
32251;BME280;41295;48.518;9.206;2023-03-23T04:52:28;96479.31;;;14.79;46.90
32251;BME280;41295;48.518;9.206;2023-03-23T04:54:29;96478.28;;;14.69;47.21
32251;BME280;41295;48.518;9.206;2023-03-23T04:56:30;96478.81;;;14.74;47.07
32251;BME280;41295;48.518;9.206;2023-03-23T04:58:32;96470.41;;;14.69;47.21
32251;BME280;41295;48.518;9.206;2023-03-23T05:00:35;96474.38;;;14.74;47.20
32251;BME280;41295;48.518;9.206;2023-03-23T05:02:38;96473.44;;;14.75;47.07
32251;BME280;41295;48.518;9.206;2023-03-23T05:04:40;96474.47;;;14.73;46.98
32251;BME280;41295;48.518;9.206;2023-03-23T05:06:42;96473.91;;;14.95;46.23
32251;BME280;41295;48.518;9.206;2023-03-23T05:08:45;96466.53;;;14.87;46.65
32251;BME280;41295;48.518;9.206;2023-03-23T05:10:50;96473.28;;;14.91;46.27
32251;BME280;41295;48.518;9.206;2023-03-23T05:12:53;96469.06;;;15.02;45.99
32251;BME280;41295;48.518;9.206;2023-03-23T05:14:55;96471.41;;;14.94;46.71
32251;BME280;41295;48.518;9.206;2023-03-23T05:16:56;96471.06;;;14.85;46.70
32251;BME280;41295;48.518;9.206;2023-03-23T05:18:59;96471.28;;;14.95;46.62
32251;BME280;41295;48.518;9.206;2023-03-23T05:21:02;96474.94;;;14.93;46.52
32251;BME280;41295;48.518;9.206;2023-03-23T05:23:03;96483.44;;;14.83;46.78
32251;BME280;41295;48.518;9.206;2023-03-23T05:25:06;96471.69;;;14.89;46.75
32251;BME280;41295;48.518;9.206;2023-03-23T05:27:10;96474.03;;;14.94;46.69
32251;BME280;41295;48.518;9.206;2023-03-23T05:29:11;96474.75;;;14.83;46.75
32251;BME280;41295;48.518;9.206;2023-03-23T05:31:13;96474.19;;;14.77;46.90
32251;BME280;41295;48.518;9.206;2023-03-23T05:33:14;96467.56;;;14.72;47.25
32251;BME280;41295;48.518;9.206;2023-03-23T05:35:18;96471.97;;;14.71;47.24
32251;BME280;41295;48.518;9.206;2023-03-23T05:37:20;96462.41;;;14.70;47.36
32251;BME280;41295;48.518;9.206;2023-03-23T05:39:22;96462.72;;;14.65;47.34
32251;BME280;41295;48.518;9.206;2023-03-23T05:41:23;96459.97;;;14.67;47.49
32251;BME280;41295;48.518;9.206;2023-03-23T05:43:25;96461.03;;;14.64;47.55
32251;BME280;41295;48.518;9.206;2023-03-23T05:45:27;96466.28;;;14.64;47.67
32251;BME280;41295;48.518;9.206;2023-03-23T05:47:28;96469.25;;;14.60;47.82
32251;BME280;41295;48.518;9.206;2023-03-23T05:49:30;96471.66;;;14.63;47.73
32251;BME280;41295;48.518;9.206;2023-03-23T05:51:33;96464.69;;;14.62;47.88
32251;BME280;41295;48.518;9.206;2023-03-23T05:53:35;96474.38;;;14.61;48.13
32251;BME280;41295;48.518;9.206;2023-03-23T05:55:36;96481.41;;;14.61;48.22
32251;BME280;41295;48.518;9.206;2023-03-23T05:57:38;96481.50;;;14.59;48.51
32251;BME280;41295;48.518;9.206;2023-03-23T05:59:39;96484.34;;;14.56;48.76
32251;BME280;41295;48.518;9.206;2023-03-23T06:01:41;96485.91;;;14.59;48.67
32251;BME280;41295;48.518;9.206;2023-03-23T06:03:42;96487.59;;;14.60;48.51
32251;BME280;41295;48.518;9.206;2023-03-23T06:05:45;96499.03;;;14.59;48.79
32251;BME280;41295;48.518;9.206;2023-03-23T06:07:48;96500.72;;;14.60;48.72
32251;BME280;41295;48.518;9.206;2023-03-23T06:09:49;96504.38;;;14.57;48.86
32251;BME280;41295;48.518;9.206;2023-03-23T06:11:51;96505.31;;;14.56;49.06
32251;BME280;41295;48.518;9.206;2023-03-23T06:13:52;96504.25;;;14.59;49.41
32251;BME280;41295;48.518;9.206;2023-03-23T06:15:55;96508.59;;;14.60;49.64
32251;BME280;41295;48.518;9.206;2023-03-23T06:17:58;96518.34;;;14.58;49.76
32251;BME280;41295;48.518;9.206;2023-03-23T06:20:00;96516.53;;;14.58;49.66
32251;BME280;41295;48.518;9.206;2023-03-23T06:22:04;96518.34;;;14.58;49.35
32251;BME280;41295;48.518;9.206;2023-03-23T06:24:07;96520.00;;;14.59;48.82
32251;BME280;41295;48.518;9.206;2023-03-23T06:26:09;96518.97;;;14.61;48.67
32251;BME280;41295;48.518;9.206;2023-03-23T06:28:14;96521.38;;;14.64;49.10
32251;BME280;41295;48.518;9.206;2023-03-23T06:30:16;96520.66;;;14.62;49.09
32251;BME280;41295;48.518;9.206;2023-03-23T06:32:17;96528.19;;;14.67;49.07
32251;BME280;41295;48.518;9.206;2023-03-23T06:34:19;96520.31;;;14.67;49.16
32251;BME280;41295;48.518;9.206;2023-03-23T06:36:20;96530.22;;;14.76;49.31
32251;BME280;41295;48.518;9.206;2023-03-23T06:38:23;96530.69;;;14.83;49.26
32251;BME280;41295;48.518;9.206;2023-03-23T06:40:26;96533.41;;;14.82;49.30
32251;BME280;41295;48.518;9.206;2023-03-23T06:42:28;96534.03;;;14.85;49.06
32251;BME280;41295;48.518;9.206;2023-03-23T06:44:30;96539.19;;;14.87;48.70
32251;BME280;41295;48.518;9.206;2023-03-23T06:46:32;96542.66;;;14.87;48.48
32251;BME280;41295;48.518;9.206;2023-03-23T06:48:33;96542.56;;;14.89;48.21
32251;BME280;41295;48.518;9.206;2023-03-23T06:50:35;96534.38;;;14.94;48.14
32251;BME280;41295;48.518;9.206;2023-03-23T06:52:36;96551.38;;;14.88;48.58
32251;BME280;41295;48.518;9.206;2023-03-23T06:54:38;96540.25;;;14.84;48.97
32251;BME280;41295;48.518;9.206;2023-03-23T06:56:40;96542.13;;;14.82;49.13
32251;BME280;41295;48.518;9.206;2023-03-23T06:58:42;96547.38;;;14.82;49.74
32251;BME280;41295;48.518;9.206;2023-03-23T07:00:45;96545.50;;;14.84;49.60
32251;BME280;41295;48.518;9.206;2023-03-23T07:02:48;96548.00;;;14.86;49.40
32251;BME280;41295;48.518;9.206;2023-03-23T07:04:49;96546.94;;;14.88;49.05
32251;BME280;41295;48.518;9.206;2023-03-23T07:06:50;96549.69;;;14.87;48.99
32251;BME280;41295;48.518;9.206;2023-03-23T07:08:52;96550.44;;;14.89;49.13
32251;BME280;41295;48.518;9.206;2023-03-23T07:10:54;96557.56;;;14.87;49.18
32251;BME280;41295;48.518;9.206;2023-03-23T07:12:57;96559.16;;;14.89;48.91
32251;BME280;41295;48.518;9.206;2023-03-23T07:14:59;96562.50;;;14.91;49.17
32251;BME280;41295;48.518;9.206;2023-03-23T07:17:02;96563.34;;;14.92;49.35
32251;BME280;41295;48.518;9.206;2023-03-23T07:19:04;96565.03;;;14.93;49.30
32251;BME280;41295;48.518;9.206;2023-03-23T07:21:06;96554.53;;;14.93;49.30
32251;BME280;41295;48.518;9.206;2023-03-23T07:23:08;96570.06;;;14.96;49.69
32251;BME280;41295;48.518;9.206;2023-03-23T07:25:09;96564.81;;;14.96;49.79
32251;BME280;41295;48.518;9.206;2023-03-23T07:27:11;96573.44;;;14.98;49.71
32251;BME280;41295;48.518;9.206;2023-03-23T07:29:15;96583.72;;;15.01;49.46
32251;BME280;41295;48.518;9.206;2023-03-23T07:31:16;96585.44;;;15.02;49.46
32251;BME280;41295;48.518;9.206;2023-03-23T07:33:18;96582.06;;;15.00;49.43
32251;BME280;41295;48.518;9.206;2023-03-23T07:35:19;96586.59;;;15.24;48.91
32251;BME280;41295;48.518;9.206;2023-03-23T07:37:21;96585.22;;;15.45;48.18
32251;BME280;41295;48.518;9.206;2023-03-23T07:39:22;96587.97;;;15.30;48.31
32251;BME280;41295;48.518;9.206;2023-03-23T07:41:24;96590.16;;;15.49;47.26
32251;BME280;41295;48.518;9.206;2023-03-23T07:43:26;96600.34;;;15.67;46.69
32251;BME280;41295;48.518;9.206;2023-03-23T07:45:30;96602.78;;;15.70;46.44
32251;BME280;41295;48.518;9.206;2023-03-23T07:47:32;96605.50;;;15.69;46.69
32251;BME280;41295;48.518;9.206;2023-03-23T07:49:33;96605.81;;;15.64;46.73
32251;BME280;41295;48.518;9.206;2023-03-23T07:51:36;96609.28;;;15.65;46.81
32251;BME280;41295;48.518;9.206;2023-03-23T07:53:38;96603.19;;;15.64;47.07
32251;BME280;41295;48.518;9.206;2023-03-23T07:55:41;96602.47;;;15.49;47.43
32251;BME280;41295;48.518;9.206;2023-03-23T07:57:43;96605.81;;;15.77;46.95
32251;BME280;41295;48.518;9.206;2023-03-23T07:59:44;96601.72;;;15.86;46.64
32251;BME280;41295;48.518;9.206;2023-03-23T08:01:47;96601.06;;;15.82;46.91
32251;BME280;41295;48.518;9.206;2023-03-23T08:03:49;96606.66;;;15.78;47.08
32251;BME280;41295;48.518;9.206;2023-03-23T08:05:51;96599.38;;;15.81;47.14
32251;BME280;41295;48.518;9.206;2023-03-23T08:07:54;96609.94;;;15.68;47.48
32251;BME280;41295;48.518;9.206;2023-03-23T08:09:55;96603.59;;;15.71;47.68
32251;BME280;41295;48.518;9.206;2023-03-23T08:11:57;96626.72;;;15.92;47.17
32251;BME280;41295;48.518;9.206;2023-03-23T08:13:58;96618.84;;;15.79;47.19
32251;BME280;41295;48.518;9.206;2023-03-23T08:16:00;96603.72;;;15.69;47.72
32251;BME280;41295;48.518;9.206;2023-03-23T08:18:05;96612.53;;;15.81;48.09
32251;BME280;41295;48.518;9.206;2023-03-23T08:20:07;96620.41;;;15.94;47.08
32251;BME280;41295;48.518;9.206;2023-03-23T08:22:12;96618.50;;;15.96;47.30
32251;BME280;41295;48.518;9.206;2023-03-23T08:24:15;96617.19;;;15.78;47.83
32251;BME280;41295;48.518;9.206;2023-03-23T08:26:16;96620.19;;;15.97;47.88
32251;BME280;41295;48.518;9.206;2023-03-23T08:28:18;96620.50;;;15.93;47.95
32251;BME280;41295;48.518;9.206;2023-03-23T08:30:20;96622.09;;;16.08;47.50
32251;BME280;41295;48.518;9.206;2023-03-23T08:32:22;96622.81;;;16.10;47.68
32251;BME280;41295;48.518;9.206;2023-03-23T08:34:25;96619.78;;;16.04;48.09
32251;BME280;41295;48.518;9.206;2023-03-23T08:36:27;96641.22;;;15.97;48.54
32251;BME280;41295;48.518;9.206;2023-03-23T08:38:28;96641.56;;;16.06;48.21
32251;BME280;41295;48.518;9.206;2023-03-23T08:40:31;96642.72;;;16.02;48.45
32251;BME280;41295;48.518;9.206;2023-03-23T08:42:33;96640.59;;;16.07;48.81
32251;BME280;41295;48.518;9.206;2023-03-23T08:44:35;96638.47;;;16.12;48.58
32251;BME280;41295;48.518;9.206;2023-03-23T08:46:37;96664.16;;;16.08;48.57
32251;BME280;41295;48.518;9.206;2023-03-23T08:48:39;96650.38;;;16.05;48.40
32251;BME280;41295;48.518;9.206;2023-03-23T08:50:42;96653.97;;;16.04;48.90
32251;BME280;41295;48.518;9.206;2023-03-23T08:52:43;96660.47;;;15.98;49.31
32251;BME280;41295;48.518;9.206;2023-03-23T08:54:45;96669.50;;;15.94;49.73
32251;BME280;41295;48.518;9.206;2023-03-23T08:56:47;96651.44;;;15.89;49.62
32251;BME280;41295;48.518;9.206;2023-03-23T08:58:49;96657.53;;;15.90;50.08
32251;BME280;41295;48.518;9.206;2023-03-23T09:00:50;96664.78;;;15.99;50.19
32251;BME280;41295;48.518;9.206;2023-03-23T09:02:52;96662.78;;;15.90;50.10
32251;BME280;41295;48.518;9.206;2023-03-23T09:04:54;96669.41;;;16.08;50.04
32251;BME280;41295;48.518;9.206;2023-03-23T09:06:57;96675.94;;;16.16;49.88
32251;BME280;41295;48.518;9.206;2023-03-23T09:08:59;96683.53;;;16.07;50.03
32251;BME280;41295;48.518;9.206;2023-03-23T09:11:07;96684.69;;;16.03;50.15
32251;BME280;41295;48.518;9.206;2023-03-23T09:13:09;96674.16;;;15.90;50.52
32251;BME280;41295;48.518;9.206;2023-03-23T09:15:13;96670.78;;;16.01;50.57
32251;BME280;41295;48.518;9.206;2023-03-23T09:17:15;96674.78;;;15.81;51.04
32251;BME280;41295;48.518;9.206;2023-03-23T09:19:16;96671.63;;;16.02;51.19
32251;BME280;41295;48.518;9.206;2023-03-23T09:21:18;96685.19;;;15.82;51.71
32251;BME280;41295;48.518;9.206;2023-03-23T09:23:22;96700.00;;;15.96;51.53
32251;BME280;41295;48.518;9.206;2023-03-23T09:25:27;96701.06;;;15.94;51.66
32251;BME280;41295;48.518;9.206;2023-03-23T09:27:29;96699.81;;;15.99;51.29
32251;BME280;41295;48.518;9.206;2023-03-23T09:29:30;96697.47;;;15.82;51.81
32251;BME280;41295;48.518;9.206;2023-03-23T09:31:32;96693.72;;;15.99;51.01
32251;BME280;41295;48.518;9.206;2023-03-23T09:33:33;96695.38;;;15.87;51.27
32251;BME280;41295;48.518;9.206;2023-03-23T09:35:36;96689.59;;;15.82;52.02
32251;BME280;41295;48.518;9.206;2023-03-23T09:37:39;96699.81;;;15.99;51.40
32251;BME280;41295;48.518;9.206;2023-03-23T09:39:42;96702.44;;;15.86;51.64
32251;BME280;41295;48.518;9.206;2023-03-23T09:41:59;96700.56;;;16.02;51.70
32251;BME280;41295;48.518;9.206;2023-03-23T09:44:10;96695.41;;;16.13;51.27
32251;BME280;41295;48.518;9.206;2023-03-23T09:46:28;96698.13;;;15.98;51.47
32251;BME280;41295;48.518;9.206;2023-03-23T09:48:40;96701.38;;;15.89;52.11
32251;BME280;41295;48.518;9.206;2023-03-23T09:50:44;96712.03;;;16.01;51.56
32251;BME280;41295;48.518;9.206;2023-03-23T09:52:55;96714.31;;;15.92;52.04
32251;BME280;41295;48.518;9.206;2023-03-23T09:54:58;96715.78;;;15.83;52.65
32251;BME280;41295;48.518;9.206;2023-03-23T09:57:01;96707.59;;;16.01;51.58
32251;BME280;41295;48.518;9.206;2023-03-23T09:59:11;96704.22;;;16.12;50.64
32251;BME280;41295;48.518;9.206;2023-03-23T10:01:17;96709.38;;;16.14;50.95
32251;BME280;41295;48.518;9.206;2023-03-23T10:03:26;96711.50;;;16.21;50.96
32251;BME280;41295;48.518;9.206;2023-03-23T10:05:33;96702.00;;;16.19;51.18
32251;BME280;41295;48.518;9.206;2023-03-23T10:07:35;96700.56;;;16.02;51.73
32251;BME280;41295;48.518;9.206;2023-03-23T10:09:38;96713.25;;;16.34;51.10
32251;BME280;41295;48.518;9.206;2023-03-23T10:11:49;96712.00;;;16.14;51.63
32251;BME280;41295;48.518;9.206;2023-03-23T10:14:03;96699.47;;;16.30;51.27
32251;BME280;41295;48.518;9.206;2023-03-23T10:16:11;96709.03;;;16.31;51.01
32251;BME280;41295;48.518;9.206;2023-03-23T10:18:17;96706.09;;;16.36;50.70
32251;BME280;41295;48.518;9.206;2023-03-23T10:20:29;96709.88;;;16.45;50.26
32251;BME280;41295;48.518;9.206;2023-03-23T10:22:35;96696.28;;;16.51;50.00
32251;BME280;41295;48.518;9.206;2023-03-23T10:24:48;96693.09;;;16.59;49.26
32251;BME280;41295;48.518;9.206;2023-03-23T10:27:00;96695.22;;;16.54;49.91
32251;BME280;41295;48.518;9.206;2023-03-23T10:29:12;96703.13;;;16.41;50.76
32251;BME280;41295;48.518;9.206;2023-03-23T10:31:18;96699.25;;;16.33;51.49
32251;BME280;41295;48.518;9.206;2023-03-23T10:33:25;96701.22;;;16.56;50.69
32251;BME280;41295;48.518;9.206;2023-03-23T10:35:35;96704.13;;;16.64;49.90
32251;BME280;41295;48.518;9.206;2023-03-23T10:37:42;96708.50;;;16.52;50.48
32251;BME280;41295;48.518;9.206;2023-03-23T10:39:49;96705.34;;;16.47;50.47
32251;BME280;41295;48.518;9.206;2023-03-23T10:41:51;96714.19;;;16.46;50.78
32251;BME280;41295;48.518;9.206;2023-03-23T10:43:54;96711.78;;;16.43;50.75
32251;BME280;41295;48.518;9.206;2023-03-23T10:46:00;96714.06;;;16.47;51.28
32251;BME280;41295;48.518;9.206;2023-03-23T10:48:09;96719.84;;;16.53;51.33
32251;BME280;41295;48.518;9.206;2023-03-23T10:50:15;96724.28;;;16.52;52.21
32251;BME280;41295;48.518;9.206;2023-03-23T10:52:29;96717.91;;;16.68;52.64
32251;BME280;41295;48.518;9.206;2023-03-23T10:54:36;96718.03;;;16.66;53.01
32251;BME280;41295;48.518;9.206;2023-03-23T10:56:41;96714.63;;;16.77;53.48
32251;BME280;41295;48.518;9.206;2023-03-23T10:58:44;96715.56;;;16.76;52.47